createdAt,value
2018-07-20T00:02:11.055Z,5.77
2018-07-20T00:04:39.464Z,4.70
2018-07-20T00:07:07.833Z,5.70
2018-07-20T00:09:36.202Z,5.93
2018-07-20T00:12:04.568Z,5.83
2018-07-20T00:14:32.949Z,5.67
2018-07-20T00:17:01.322Z,6.40
2018-07-20T00:19:29.744Z,7.07
2018-07-20T00:21:58.102Z,6.90
2018-07-20T00:24:26.491Z,5.30
2018-07-20T00:26:54.838Z,5.70
2018-07-20T00:29:23.215Z,6.80
2018-07-20T00:31:51.549Z,5.60
2018-07-20T00:34:19.951Z,9.10
2018-07-20T00:36:48.289Z,5.10
2018-07-20T00:39:16.676Z,5.20
2018-07-20T00:41:45.021Z,6.00
2018-07-20T00:44:13.389Z,6.07
2018-07-20T00:46:41.461Z,5.40
2018-07-20T00:49:09.559Z,6.37
2018-07-20T00:51:37.904Z,5.00
2018-07-20T00:54:06.277Z,7.03
2018-07-20T00:56:34.612Z,5.10
2018-07-20T00:59:02.976Z,6.40
2018-07-20T01:01:31.344Z,5.20
2018-07-20T01:03:59.685Z,5.27
2018-07-20T01:06:28.056Z,6.57
2018-07-20T01:08:56.408Z,6.30
2018-07-20T01:11:26.764Z,5.67
2018-07-20T01:13:55.115Z,5.67
2018-07-20T01:16:23.476Z,5.93
2018-07-20T01:18:51.821Z,5.80
2018-07-20T01:21:20.189Z,4.70
2018-07-20T01:23:48.538Z,5.90
2018-07-20T01:26:16.901Z,6.97
2018-07-20T01:28:45.234Z,4.73
2018-07-20T01:31:13.604Z,5.10
2018-07-20T01:33:41.947Z,7.27
2018-07-20T01:36:10.324Z,6.80
2018-07-20T01:38:38.670Z,7.57
2018-07-20T01:41:06.808Z,8.73
2018-07-20T01:43:35.199Z,6.13
2018-07-20T01:46:03.559Z,6.53
2018-07-20T01:48:31.917Z,6.07
2018-07-20T01:51:00.304Z,5.93
2018-07-20T01:53:28.639Z,10.97
2018-07-20T01:55:56.991Z,5.50
2018-07-20T01:58:25.346Z,8.00
2018-07-20T02:00:53.777Z,7.73
2018-07-20T02:03:22.183Z,5.50
2018-07-20T02:05:50.523Z,6.87
2018-07-20T02:08:18.850Z,6.27
2018-07-20T02:10:50.747Z,8.90
2018-07-20T02:13:19.091Z,6.07
2018-07-20T02:15:47.431Z,8.20
2018-07-20T02:18:15.486Z,6.50
2018-07-20T02:20:43.828Z,8.03
2018-07-20T02:23:12.143Z,8.63
2018-07-20T02:25:40.492Z,7.63
2018-07-20T02:28:08.819Z,6.43
2018-07-20T02:30:36.910Z,7.00
2018-07-20T02:33:05.245Z,7.07
2018-07-20T02:35:33.605Z,6.30
2018-07-20T02:38:01.927Z,8.23
2018-07-20T02:40:30.276Z,6.43
2018-07-20T02:42:58.700Z,6.93
2018-07-20T02:45:26.776Z,7.17
2018-07-20T02:47:54.872Z,6.40
2018-07-20T02:50:23.199Z,6.50
2018-07-20T02:52:51.596Z,7.13
2018-07-20T02:55:20.068Z,6.57
2018-07-20T02:57:48.441Z,6.43
2018-07-20T03:00:16.809Z,7.30
2018-07-20T03:02:45.167Z,7.53
2018-07-20T03:05:13.484Z,9.67
2018-07-20T03:07:41.912Z,7.67
2018-07-20T03:10:10.248Z,6.43
2018-07-20T03:12:38.664Z,8.37
2018-07-20T03:15:07.044Z,6.57
2018-07-20T03:17:35.447Z,7.23
2018-07-20T03:20:03.800Z,7.10
2018-07-20T03:22:32.162Z,6.77
2018-07-20T03:25:00.491Z,5.93
2018-07-20T03:27:28.851Z,7.03
2018-07-20T03:29:57.220Z,6.80
2018-07-20T03:32:25.560Z,7.03
2018-07-20T03:34:53.927Z,7.10
2018-07-20T03:37:22.282Z,7.63
2018-07-20T03:39:50.647Z,7.63
2018-07-20T03:42:18.996Z,6.10
2018-07-20T03:44:47.087Z,6.13
2018-07-20T03:47:15.437Z,5.90
2018-07-20T03:49:43.816Z,7.03
2018-07-20T03:52:12.166Z,6.50
2018-07-20T03:54:40.547Z,5.90
2018-07-20T03:57:08.928Z,5.80
2018-07-20T03:59:37.357Z,5.80
2018-07-20T04:02:05.727Z,4.93
2018-07-20T04:04:33.839Z,6.10
2018-07-20T04:07:02.211Z,5.90
2018-07-20T04:09:30.600Z,5.33
2018-07-20T04:11:58.944Z,5.87
2018-07-20T04:14:27.042Z,5.50
2018-07-20T04:16:55.391Z,5.60
2018-07-20T04:19:23.764Z,5.53
2018-07-20T04:21:52.116Z,5.60
2018-07-20T04:24:20.560Z,6.00
2018-07-20T04:26:48.909Z,5.97
2018-07-20T04:29:16.963Z,6.40
2018-07-20T04:31:45.325Z,5.77
2018-07-20T04:34:13.663Z,6.53
2018-07-20T04:36:42.043Z,5.83
2018-07-20T04:39:12.855Z,5.57
2018-07-20T04:41:41.386Z,5.87
2018-07-20T04:44:09.720Z,5.27
2018-07-20T04:46:38.046Z,6.10
2018-07-20T04:49:06.376Z,5.47
2018-07-20T04:51:34.558Z,6.47
2018-07-20T04:54:03.064Z,5.97
2018-07-20T04:56:31.428Z,6.27
2018-07-20T04:58:59.792Z,5.30
2018-07-20T05:01:27.938Z,5.80
2018-07-20T05:03:56.265Z,5.63
2018-07-20T05:06:24.615Z,5.30
2018-07-20T05:08:52.940Z,6.23
2018-07-20T05:11:21.329Z,6.13
2018-07-20T05:13:49.651Z,5.50
2018-07-20T05:16:18.384Z,6.30
2018-07-20T05:18:46.731Z,5.47
2018-07-20T05:21:15.074Z,5.40
2018-07-20T05:23:43.421Z,4.83
2018-07-20T05:26:11.778Z,7.73
2018-07-20T05:28:40.083Z,8.90
2018-07-20T05:31:08.406Z,7.03
2018-07-20T05:33:36.760Z,5.17
2018-07-20T05:36:05.138Z,4.67
2018-07-20T05:38:33.498Z,5.67
2018-07-20T05:41:01.815Z,7.07
2018-07-20T05:43:30.150Z,6.53
2018-07-20T05:45:58.491Z,4.47
2018-07-20T05:48:26.881Z,4.63
2018-07-20T05:50:54.933Z,4.93
2018-07-20T05:53:23.322Z,4.57
2018-07-20T05:55:51.631Z,6.23
2018-07-20T05:58:20.007Z,5.07
2018-07-20T06:00:48.382Z,5.73
2018-07-20T06:03:16.483Z,6.57
2018-07-20T06:05:44.827Z,5.10
2018-07-20T06:08:12.921Z,6.63
2018-07-20T06:10:41.311Z,5.50
2018-07-20T06:13:09.658Z,4.80
2018-07-20T06:15:37.982Z,5.33
2018-07-20T06:18:06.324Z,5.47
2018-07-20T06:20:34.391Z,5.90
2018-07-20T06:23:02.472Z,5.50
2018-07-20T06:25:30.672Z,5.53
2018-07-20T06:27:58.953Z,7.03
2018-07-20T06:30:27.634Z,7.37
2018-07-20T06:32:56.253Z,5.00
2018-07-20T06:35:24.683Z,5.00
2018-07-20T06:37:52.760Z,4.87
2018-07-20T06:40:20.838Z,7.60
2018-07-20T06:42:48.930Z,6.23
2018-07-20T06:45:17.256Z,7.87
2018-07-20T06:47:45.575Z,6.83
2018-07-20T06:50:16.603Z,6.43
2018-07-20T06:52:45.882Z,6.60
2018-07-20T06:55:14.239Z,5.27
2018-07-20T06:57:42.680Z,5.93
2018-07-20T07:00:11.030Z,5.07
2018-07-20T07:02:39.386Z,6.73
2018-07-20T07:05:09.039Z,8.43
2018-07-20T07:07:37.359Z,6.63
2018-07-20T07:10:06.407Z,4.93
2018-07-20T07:12:34.743Z,5.63
2018-07-20T07:15:03.188Z,6.37
2018-07-20T07:17:31.487Z,5.53
2018-07-20T07:19:59.814Z,5.03
2018-07-20T07:22:28.135Z,7.30
2018-07-20T07:24:56.472Z,6.80
2018-07-20T07:27:24.527Z,4.77
2018-07-20T07:29:52.943Z,5.00
2018-07-20T07:32:21.266Z,6.90
2018-07-20T07:34:49.660Z,4.90
2018-07-20T07:37:17.980Z,4.87
2018-07-20T07:39:46.058Z,5.93
2018-07-20T07:42:14.516Z,8.47
2018-07-20T07:44:42.787Z,4.97
2018-07-20T07:47:11.180Z,5.47
2018-07-20T07:49:39.306Z,8.00
2018-07-20T07:52:07.711Z,4.13
2018-07-20T07:54:36.065Z,4.33
2018-07-20T07:57:04.399Z,4.30
2018-07-20T07:59:32.487Z,5.03
2018-07-20T08:02:00.825Z,6.13
2018-07-20T08:04:29.189Z,4.73
2018-07-20T08:06:57.515Z,4.67
2018-07-20T08:09:25.614Z,6.63
2018-07-20T08:11:53.943Z,6.23
2018-07-20T08:14:22.714Z,6.83
2018-07-20T08:16:51.027Z,8.90
2018-07-20T08:19:19.098Z,7.13
2018-07-20T08:21:47.190Z,5.33
2018-07-20T08:24:15.552Z,7.33
2018-07-20T08:26:43.620Z,7.93
2018-07-20T08:29:12.039Z,4.17
2018-07-20T08:31:40.371Z,4.97
2018-07-20T08:34:08.730Z,4.33
2018-07-20T08:36:37.072Z,4.60
2018-07-20T08:39:07.664Z,4.13
2018-07-20T08:41:36.004Z,4.67
2018-07-20T08:44:04.331Z,5.43
2018-07-20T08:46:32.427Z,4.73
2018-07-20T08:49:00.788Z,5.93
2018-07-20T08:51:29.167Z,5.57
2018-07-20T08:53:57.252Z,4.77
2018-07-20T08:56:25.588Z,4.43
2018-07-20T08:58:53.947Z,4.50
2018-07-20T09:01:22.286Z,4.03
2018-07-20T09:03:50.595Z,4.17
2018-07-20T09:06:18.919Z,4.37
2018-07-20T09:08:47.235Z,5.33
2018-07-20T09:11:15.651Z,5.93
2018-07-20T09:13:43.997Z,7.13
2018-07-20T09:16:12.315Z,6.70
2018-07-20T09:18:40.816Z,5.00
2018-07-20T09:21:09.192Z,5.70
2018-07-20T09:23:37.503Z,6.83
2018-07-20T09:26:05.839Z,5.73
2018-07-20T09:28:34.157Z,4.87
2018-07-20T09:31:02.512Z,5.00
2018-07-20T09:33:30.570Z,5.30
2018-07-20T09:35:58.915Z,5.30
2018-07-20T09:38:27.223Z,7.03
2018-07-20T09:40:55.567Z,5.70
2018-07-20T09:43:23.897Z,4.90
2018-07-20T09:45:52.285Z,5.83
2018-07-20T09:48:20.341Z,5.03
2018-07-20T09:50:48.736Z,4.60
2018-07-20T09:53:17.071Z,4.63
2018-07-20T09:55:45.440Z,6.17
2018-07-20T09:58:13.810Z,10.07
2018-07-20T10:00:47.448Z,7.07
2018-07-20T10:03:15.793Z,4.53
2018-07-20T10:05:44.463Z,4.13
2018-07-20T10:08:12.791Z,5.20
2018-07-20T10:10:41.192Z,5.00
2018-07-20T10:13:09.509Z,7.73
2018-07-20T10:15:37.954Z,5.10
2018-07-20T10:18:06.276Z,5.30
2018-07-20T10:20:34.682Z,4.67
2018-07-20T10:23:03.108Z,4.23
2018-07-20T10:25:32.024Z,5.25
2018-07-20T10:28:00.351Z,5.30
2018-07-20T10:30:28.737Z,4.77
2018-07-20T10:32:57.103Z,4.42
2018-07-20T10:35:25.407Z,6.67
2018-07-20T10:37:53.486Z,5.53
2018-07-20T10:40:25.152Z,4.97
2018-07-20T10:42:53.399Z,4.28
2018-07-20T10:45:21.790Z,5.67
2018-07-20T10:47:50.131Z,6.47
2018-07-20T10:50:18.443Z,4.92
2018-07-20T10:52:46.805Z,5.75
2018-07-20T10:55:15.122Z,4.15
2018-07-20T10:57:43.212Z,6.10
2018-07-20T11:00:11.519Z,5.12
2018-07-20T11:02:39.939Z,5.47
2018-07-20T11:05:08.303Z,8.78
2018-07-20T11:07:36.636Z,6.85
2018-07-20T11:10:05.271Z,5.40
2018-07-20T11:12:33.611Z,5.58
2018-07-20T11:15:01.982Z,8.48
2018-07-20T11:17:30.327Z,8.45
2018-07-20T11:19:58.382Z,4.72
2018-07-20T11:22:26.723Z,5.50
2018-07-20T11:24:55.051Z,6.10
2018-07-20T11:27:23.403Z,5.45
2018-07-20T11:29:51.727Z,5.05
2018-07-20T11:32:19.806Z,5.47
2018-07-20T11:34:48.170Z,5.95
2018-07-20T11:37:16.527Z,5.97
2018-07-20T11:39:45.115Z,4.65
2018-07-20T11:42:13.462Z,6.60
2018-07-20T11:44:41.784Z,8.03
2018-07-20T11:47:10.142Z,7.10
2018-07-20T11:49:38.501Z,5.03
2018-07-20T11:52:06.865Z,8.28
2018-07-20T11:54:35.177Z,8.18
2018-07-20T11:57:03.553Z,4.92
2018-07-20T11:59:31.867Z,4.90
2018-07-20T12:02:00.047Z,6.22
2018-07-20T12:04:28.089Z,6.95
2018-07-20T12:06:56.460Z,10.60
2018-07-20T12:09:24.772Z,6.22
2018-07-20T12:11:52.874Z,5.55
2018-07-20T12:14:21.267Z,5.83
2018-07-20T12:16:49.595Z,5.92
2018-07-20T12:19:17.943Z,5.92
2018-07-20T12:21:46.263Z,6.47
2018-07-20T12:24:14.330Z,5.75
2018-07-20T12:26:42.668Z,6.35
2018-07-20T12:29:11.311Z,8.68
2018-07-20T12:31:39.366Z,5.70
2018-07-20T12:34:07.773Z,7.25
2018-07-20T12:36:36.072Z,10.98
2018-07-20T12:39:06.379Z,5.30
2018-07-20T12:41:34.697Z,6.95
2018-07-20T12:44:03.040Z,5.50
2018-07-20T12:46:31.364Z,5.72
2018-07-20T12:48:59.719Z,5.90
2018-07-20T12:51:28.050Z,5.70
2018-07-20T12:53:56.134Z,6.17
2018-07-20T12:56:24.503Z,5.97
2018-07-20T12:58:52.614Z,6.00
2018-07-20T13:01:20.963Z,7.17
2018-07-20T13:03:49.043Z,6.33
2018-07-20T13:06:17.367Z,6.75
2018-07-20T13:08:46.108Z,6.08
2018-07-20T13:11:14.523Z,6.10
2018-07-20T13:13:42.894Z,6.40
2018-07-20T13:16:11.220Z,8.13
2018-07-20T13:18:39.564Z,7.28
2018-07-20T13:21:07.891Z,6.65
2018-07-20T13:23:36.291Z,6.30
2018-07-20T13:26:04.391Z,8.30
2018-07-20T13:28:32.758Z,5.83
2018-07-20T13:31:01.112Z,10.00
2018-07-20T13:33:29.473Z,8.33
2018-07-20T13:35:57.787Z,6.40
2018-07-20T13:38:26.367Z,7.50
2018-07-20T13:40:54.704Z,7.10
2018-07-20T13:43:23.045Z,5.80
2018-07-20T13:45:51.360Z,6.10
2018-07-20T13:48:19.834Z,6.40
2018-07-20T13:50:48.195Z,11.78
2018-07-20T13:53:16.536Z,7.33
2018-07-20T13:55:44.860Z,7.92
2018-07-20T13:58:13.235Z,8.38
2018-07-20T14:00:41.571Z,6.95
2018-07-20T14:03:11.532Z,6.33
2018-07-20T14:05:39.961Z,6.03
2018-07-20T14:08:08.039Z,6.28
2018-07-20T14:10:36.134Z,6.97
2018-07-20T14:13:04.471Z,6.15
2018-07-20T14:15:33.647Z,6.00
2018-07-20T14:18:02.005Z,7.87
2018-07-20T14:20:30.379Z,6.17
2018-07-20T14:22:58.715Z,7.20
2018-07-20T14:25:27.062Z,6.33
2018-07-20T14:27:55.427Z,7.17
2018-07-20T14:30:23.772Z,6.70
2018-07-20T14:32:52.096Z,6.95
2018-07-20T14:35:20.439Z,6.87
2018-07-20T14:37:48.762Z,9.33
2018-07-20T14:40:17.172Z,7.28
2018-07-20T14:42:45.493Z,6.10
2018-07-20T14:45:13.839Z,6.87
2018-07-20T14:47:41.878Z,7.17
2018-07-20T14:50:09.970Z,7.30
2018-07-20T14:52:38.294Z,6.62
2018-07-20T14:55:06.635Z,8.00
2018-07-20T14:57:34.707Z,7.47
2018-07-20T15:00:02.827Z,8.75
2018-07-20T15:02:31.143Z,8.90
2018-07-20T15:04:59.492Z,6.37
2018-07-20T15:07:27.812Z,7.85
2018-07-20T15:09:55.888Z,6.87
2018-07-20T15:12:23.959Z,16.45
2018-07-20T15:14:52.051Z,6.33
2018-07-20T15:17:20.400Z,6.60
2018-07-20T15:19:48.770Z,6.78
2018-07-20T15:22:17.091Z,6.65
2018-07-20T15:24:45.446Z,6.67
2018-07-20T15:27:13.764Z,10.78
2018-07-20T15:29:42.103Z,7.08
2018-07-20T15:32:10.182Z,8.68
2018-07-20T15:34:38.275Z,7.08
2018-07-20T15:37:06.634Z,7.45
2018-07-20T15:39:35.021Z,7.20
2018-07-20T15:42:03.351Z,7.10
2018-07-20T15:44:31.691Z,9.75
2018-07-20T15:47:00.267Z,8.18
2018-07-20T15:49:28.393Z,7.20
2018-07-20T15:53:35.460Z,7.25
2018-07-20T15:54:25.092Z,7.22
2018-07-20T15:56:53.190Z,7.20
2018-07-20T15:59:21.562Z,7.53
2018-07-20T16:01:49.907Z,7.35
2018-07-20T16:04:18.270Z,9.63
2018-07-20T16:06:46.675Z,8.60
2018-07-20T16:09:15.014Z,6.78
2018-07-20T16:11:43.444Z,7.37
2018-07-20T16:14:11.740Z,7.62
2018-07-20T16:16:40.087Z,7.17
2018-07-20T16:19:08.483Z,6.70
2018-07-20T16:21:36.562Z,7.95
2018-07-20T16:24:04.896Z,7.47
2018-07-20T16:26:33.248Z,7.95
2018-07-20T16:29:01.572Z,7.00
2018-07-20T16:31:29.927Z,8.33
2018-07-20T16:33:58.239Z,6.70
2018-07-20T16:36:26.595Z,6.72
2018-07-20T16:38:54.914Z,8.60
2018-07-20T16:41:23.244Z,7.05
2018-07-20T16:43:51.619Z,7.12
2018-07-20T16:46:20.052Z,6.75
2018-07-20T16:48:48.108Z,6.97
2018-07-20T16:51:16.472Z,8.30
2018-07-20T16:53:44.812Z,8.15
2018-07-20T16:56:13.158Z,7.62
2018-07-20T16:58:41.281Z,9.45
2018-07-20T17:01:10.224Z,6.58
2018-07-20T17:03:38.270Z,7.80
2018-07-20T17:06:06.683Z,7.33
2018-07-20T17:08:34.746Z,7.65
2018-07-20T17:11:03.108Z,8.45
2018-07-20T17:13:31.444Z,7.92
2018-07-20T17:15:59.810Z,8.03
2018-07-20T17:18:28.130Z,8.35
2018-07-20T17:20:56.494Z,8.25
2018-07-20T17:23:24.814Z,10.10
2018-07-20T17:25:53.149Z,9.90
2018-07-20T17:28:21.483Z,7.78
2018-07-20T17:30:49.827Z,7.55
2018-07-20T17:33:18.150Z,7.53
2018-07-20T17:35:46.511Z,8.70
2018-07-20T17:38:14.584Z,7.95
2018-07-20T17:40:42.680Z,9.20
2018-07-20T17:43:11.062Z,7.90
2018-07-20T17:45:39.433Z,7.75
2018-07-20T17:48:07.531Z,7.45
2018-07-20T17:50:35.860Z,7.50
2018-07-20T17:53:04.203Z,9.85
2018-07-20T17:55:32.572Z,7.70
2018-07-20T17:58:00.956Z,7.30
2018-07-20T18:00:29.306Z,7.62
2018-07-20T18:02:57.647Z,8.48
2018-07-20T18:05:25.972Z,7.87
2018-07-20T18:07:54.329Z,8.35
2018-07-20T18:10:22.398Z,10.28
2018-07-20T18:12:50.763Z,9.03
2018-07-20T18:15:19.097Z,9.15
2018-07-20T18:17:47.472Z,8.58
2018-07-20T18:20:15.801Z,10.43
2018-07-20T18:22:44.148Z,8.00
2018-07-20T18:25:13.176Z,8.20
2018-07-20T18:27:41.516Z,8.78
2018-07-20T18:30:09.848Z,8.60
2018-07-20T18:32:38.195Z,8.33
2018-07-20T18:35:06.585Z,9.15
2018-07-20T18:37:34.932Z,7.95
2018-07-20T18:40:03.288Z,11.22
2018-07-20T18:42:31.640Z,8.80
2018-07-20T18:44:59.738Z,7.97
2018-07-20T18:47:28.083Z,8.63
2018-07-20T18:49:56.406Z,10.63
2018-07-20T18:52:24.772Z,9.75
2018-07-20T18:54:53.086Z,11.22
2018-07-20T18:57:21.455Z,9.18
2018-07-20T18:59:49.792Z,12.47
2018-07-20T19:02:18.142Z,11.35
2018-07-20T19:04:46.460Z,11.83
2018-07-20T19:07:14.865Z,9.28
2018-07-20T19:09:43.191Z,9.38
2018-07-20T19:12:11.539Z,8.88
2018-07-20T19:14:39.958Z,8.95
2018-07-20T19:17:08.341Z,8.98
2018-07-20T19:19:36.661Z,9.08
2018-07-20T19:22:05.000Z,8.65
2018-07-20T19:24:33.339Z,12.43
2018-07-20T19:27:01.718Z,10.70
2018-07-20T19:29:30.028Z,8.05
2018-07-20T19:31:58.372Z,11.18
2018-07-20T19:34:26.737Z,8.50
2018-07-20T19:36:55.047Z,11.83
2018-07-20T19:39:23.387Z,8.45
2018-07-20T19:41:51.701Z,10.82
2018-07-20T19:44:20.051Z,10.45
2018-07-20T19:46:48.383Z,8.70
2018-07-20T19:49:16.728Z,9.70
2018-07-20T19:51:45.044Z,9.38
2018-07-20T19:54:13.387Z,12.20
2018-07-20T19:56:41.707Z,11.05
2018-07-20T19:59:09.804Z,9.63
2018-07-20T20:01:38.131Z,9.73
2018-07-20T20:04:06.487Z,9.00
2018-07-20T20:06:34.809Z,11.60
2018-07-20T20:09:03.221Z,13.08
2018-07-20T20:11:31.588Z,11.50
2018-07-20T20:13:59.676Z,10.38
2018-07-20T20:16:28.029Z,11.38
2018-07-20T20:18:56.384Z,9.53
2018-07-20T20:21:24.730Z,9.10
2018-07-20T20:23:53.095Z,12.60
2018-07-20T20:26:21.418Z,9.15
2018-07-20T20:28:49.772Z,11.85
2018-07-20T20:31:18.151Z,13.30
2018-07-20T20:33:46.511Z,12.43
2018-07-20T20:36:14.839Z,10.60
2018-07-20T20:38:43.195Z,13.20
2018-07-20T20:41:11.659Z,9.73
2018-07-20T20:43:40.109Z,9.78
2018-07-20T20:46:08.495Z,10.70
2018-07-20T20:48:36.647Z,9.08
2018-07-20T20:51:05.045Z,13.18
2018-07-20T20:53:33.372Z,12.30
2018-07-20T20:56:01.712Z,10.48
2018-07-20T20:58:29.822Z,9.58
2018-07-20T21:00:58.163Z,11.80
2018-07-20T21:03:26.260Z,10.98
2018-07-20T21:05:54.611Z,12.43
2018-07-20T21:08:22.730Z,11.73
2018-07-20T21:10:51.704Z,10.15
2018-07-20T21:13:20.107Z,10.70
2018-07-20T21:15:48.424Z,11.60
2018-07-20T21:18:16.787Z,9.80
2018-07-20T21:20:45.164Z,10.30
2018-07-20T21:23:13.880Z,9.85
2018-07-20T21:25:41.954Z,9.70
2018-07-20T21:28:10.268Z,10.35
2018-07-20T21:30:38.617Z,9.85
2018-07-20T21:33:06.726Z,10.05
2018-07-20T21:35:35.230Z,8.13
2018-07-20T21:38:03.942Z,8.60
2018-07-20T21:40:32.335Z,13.30
2018-07-20T21:43:00.590Z,11.23
2018-07-20T21:45:29.057Z,10.25
2018-07-20T21:47:57.335Z,8.13
2018-07-20T21:50:25.768Z,9.00
2018-07-20T21:52:54.083Z,7.93
2018-07-20T21:55:22.534Z,7.87
2018-07-20T21:57:51.028Z,11.47
2018-07-20T22:00:19.783Z,7.07
2018-07-20T22:02:48.891Z,8.30
2018-07-20T22:05:17.283Z,7.93
2018-07-20T22:07:45.708Z,8.50
2018-07-20T22:10:13.887Z,9.50
2018-07-20T22:12:42.228Z,8.03
2018-07-20T22:15:10.790Z,8.33
2018-07-20T22:17:39.121Z,6.73
2018-07-20T22:20:08.575Z,6.73
2018-07-20T22:22:36.904Z,7.87
2018-07-20T22:25:06.154Z,6.73
2018-07-20T22:27:34.520Z,7.90
2018-07-20T22:30:02.791Z,5.83
2018-07-20T22:32:31.116Z,8.90
2018-07-20T22:34:59.456Z,6.57
2018-07-20T22:37:27.790Z,7.30
2018-07-20T22:39:56.139Z,6.17
2018-07-20T22:42:24.468Z,6.30
2018-07-20T22:44:52.829Z,9.93
2018-07-20T22:47:21.238Z,8.30
2018-07-20T22:49:49.585Z,5.13
2018-07-20T22:52:17.920Z,5.33
2018-07-20T22:54:49.094Z,5.33
2018-07-20T22:57:20.074Z,8.07
2018-07-20T22:59:48.520Z,6.30
2018-07-20T23:02:16.855Z,6.30
2018-07-20T23:04:45.204Z,5.30
2018-07-20T23:07:13.535Z,9.10
2018-07-20T23:09:41.880Z,5.03
2018-07-20T23:12:10.214Z,5.30
2018-07-20T23:14:38.575Z,5.47
2018-07-20T23:17:06.915Z,5.53
2018-07-20T23:19:35.284Z,4.83
2018-07-20T23:22:03.655Z,6.37
2018-07-20T23:24:32.044Z,8.67
2018-07-20T23:27:00.408Z,5.20
2018-07-20T23:29:28.797Z,4.40
2018-07-20T23:31:57.164Z,6.90
2018-07-20T23:34:25.505Z,4.70
2018-07-20T23:36:53.881Z,6.60
2018-07-20T23:39:22.234Z,5.60
2018-07-20T23:41:50.575Z,7.07
2018-07-20T23:44:18.911Z,10.73
2018-07-20T23:46:47.315Z,6.23
2018-07-20T23:49:15.652Z,4.50
2018-07-20T23:51:44.021Z,3.93
2018-07-20T23:54:12.407Z,4.53
2018-07-20T23:56:40.777Z,4.40
2018-07-20T23:59:09.156Z,5.80
